Andalusia, Alabama
Current Conditions -  °F | °C
As of 9:56 PM on Wednesday 26 Nov 2014 (Local Time) from K79J Reporting Station
Clear Clear  
Wind Chill: 50°   Ceiling: Unl
Heat Index: 50°   Visibility: 10mi
Dew Point: 36°   Wind: 5mph
Humidity: 59%   Direction: 260°W
Pressure: 30.18"   Gusts: NA
Location:  31.32°N, 86.49°W
Report Text: K79J 270356Z AUTO 26004KT 10SM CLR 10/02 A3018 RMK AO2 SLP216 T01000022
Loading
Personal Weather Stations






























Interactive Weather Map New forecast layout! Learn more

10-Day Weather Forecast

Advertisements
Track Severe Weather on mobile